Time,TemperatureF,DewpointF,PressureIn,WindDirection,WindDirectionDegrees,WindSpeedMPH,WindSpeedGustMPH,Humidity,HourlyPrecipIn,Conditions,Clouds,dailyrainin,SoftwareType,DateUTC
2013-01-29 00:02:00,49.6,43.4,29.89,ESE,112,0.0,0.0,79,0.00,,,0.00,WUHU21623XXSP,2013-01-29 06:02:00,
2013-01-29 00:07:00,49.3,43.0,29.89,ESE,112,0.0,0.0,79,0.00,,,0.00,WUHU21623XXSP,2013-01-29 06:07:00,
2013-01-29 00:12:00,49.3,43.0,29.89,ESE,112,0.0,0.0,79,0.00,,,0.00,WUHU21623XXSP,2013-01-29 06:12:00,
2013-01-29 00:17:00,49.3,43.0,29.89,ENE,67,0.0,0.0,79,0.00,,,0.00,WUHU21623XXSP,2013-01-29 06:17:00,
2013-01-29 00:23:00,49.3,43.0,29.89,ENE,67,0.0,0.0,79,0.00,,,0.00,WUHU21623XXSP,2013-01-29 06:23:00,
2013-01-29 00:27:00,49.3,43.0,29.89,ENE,67,0.0,0.0,79,0.00,,,0.00,WUHU21623XXSP,2013-01-29 06:27:00,
2013-01-29 00:32:00,49.1,42.8,29.89,ENE,67,0.0,0.0,79,0.00,,,0.00,WUHU21623XXSP,2013-01-29 06:32:00,
2013-01-29 00:37:00,48.9,42.6,29.88,ENE,67,0.0,0.0,79,0.00,,,0.00,WUHU21623XXSP,2013-01-29 06:37:00,
2013-01-29 00:42:00,48.9,42.6,29.88,ENE,67,0.0,0.0,79,0.00,,,0.00,WUHU21623XXSP,2013-01-29 06:42:00,
2013-01-29 00:47:00,48.7,42.5,29.88,ENE,67,0.0,0.0,79,0.00,,,0.00,WUHU21623XXSP,2013-01-29 06:47:00,
2013-01-29 00:52:00,48.7,42.5,29.88,ENE,67,0.0,0.0,79,0.00,,,0.00,WUHU21623XXSP,2013-01-29 06:52:00,
2013-01-29 00:57:00,48.7,42.5,29.88,ENE,67,0.0,0.0,79,0.00,,,0.00,WUHU21623XXSP,2013-01-29 06:57:00,
2013-01-29 01:02:00,48.7,42.8,29.88,ENE,67,0.0,0.0,80,0.00,,,0.00,WUHU21623XXSP,2013-01-29 07:02:00,
2013-01-29 01:07:00,48.6,42.6,29.88,NE,45,0.0,0.0,80,0.00,,,0.00,WUHU21623XXSP,2013-01-29 07:07:00,
2013-01-29 01:12:00,48.6,42.6,29.88,NE,45,0.0,0.0,80,0.00,,,0.00,WUHU21623XXSP,2013-01-29 07:12:00,
2013-01-29 01:17:00,48.6,42.6,29.88,NE,45,0.0,0.0,80,0.00,,,0.00,WUHU21623XXSP,2013-01-29 07:17:00,
2013-01-29 01:22:00,48.4,42.4,29.88,NE,45,0.0,0.0,80,0.00,,,0.00,WUHU21623XXSP,2013-01-29 07:22:00,
2013-01-29 01:27:00,48.6,42.6,29.88,NE,45,0.0,0.0,80,0.00,,,0.00,WUHU21623XXSP,2013-01-29 07:27:00,
2013-01-29 01:32:00,48.6,42.6,29.88,NE,45,0.0,0.0,80,0.00,,,0.00,WUHU21623XXSP,2013-01-29 07:32:00,
2013-01-29 01:37:00,48.6,42.6,29.87,NE,45,0.0,0.0,80,0.00,,,0.00,WUHU21623XXSP,2013-01-29 07:37:00,
2013-01-29 01:42:00,48.6,42.9,29.87,NE,45,0.0,0.0,81,0.00,,,0.00,WUHU21623XXSP,2013-01-29 07:42:00,
2013-01-29 01:47:00,48.6,42.9,29.87,NE,45,0.0,0.0,81,0.00,,,0.00,WUHU21623XXSP,2013-01-29 07:47:00,
2013-01-29 01:52:00,48.6,42.9,29.86,NE,45,0.0,0.0,81,0.00,,,0.00,WUHU21623XXSP,2013-01-29 07:52:00,
2013-01-29 01:58:00,48.6,42.9,29.86,NE,45,0.0,0.0,81,0.00,,,0.00,WUHU21623XXSP,2013-01-29 07:58:00,
2013-01-29 02:03:00,48.6,42.9,29.85,NE,45,0.0,0.0,81,0.00,,,0.00,WUHU21623XXSP,2013-01-29 08:03:00,
2013-01-29 02:08:00,48.4,42.7,29.85,NE,45,0.0,0.0,81,0.00,,,0.00,WUHU21623XXSP,2013-01-29 08:08:00,
2013-01-29 02:13:00,48.4,42.7,29.85,NE,45,0.0,0.0,81,0.00,,,0.00,WUHU21623XXSP,2013-01-29 08:13:00,
2013-01-29 02:18:00,48.4,42.7,29.86,NW,315,0.0,0.0,81,0.00,,,0.00,WUHU21623XXSP,2013-01-29 08:18:00,
2013-01-29 02:23:00,48.4,42.7,29.86,NW,315,0.0,0.0,81,0.00,,,0.00,WUHU21623XXSP,2013-01-29 08:23:00,
2013-01-29 02:28:00,48.4,42.7,29.85,NE,45,0.0,0.0,81,0.00,,,0.00,WUHU21623XXSP,2013-01-29 08:28:00,
2013-01-29 02:33:00,48.6,42.7,29.85,NE,45,0.0,0.0,81,0.00,,,0.00,WUHU21623XXSP,2013-01-29 08:33:00,
2013-01-29 02:38:00,48.4,42.7,29.85,NE,45,0.0,0.0,81,0.00,,,0.00,WUHU21623XXSP,2013-01-29 08:38:00,
2013-01-29 02:43:00,48.4,42.7,29.85,NE,45,0.0,0.0,81,0.00,,,0.00,WUHU21623XXSP,2013-01-29 08:43:00,
2013-01-29 02:48:00,48.4,42.7,29.85,NNW,337,0.0,0.0,81,0.00,,,0.00,WUHU21623XXSP,2013-01-29 08:48:00,
2013-01-29 02:53:00,48.2,42.6,29.85,NNW,337,0.0,0.0,81,0.00,,,0.00,WUHU21623XXSP,2013-01-29 08:53:00,
2013-01-29 02:58:00,48.2,42.6,29.84,NNW,337,0.0,0.0,81,0.00,,,0.00,WUHU21623XXSP,2013-01-29 08:58:00,
2013-01-29 03:03:00,48.2,42.6,29.84,NNW,337,0.0,0.0,81,0.00,,,0.00,WUHU21623XXSP,2013-01-29 09:03:00,
2013-01-29 03:08:00,48.0,42.4,29.84,NNW,337,0.0,0.0,81,0.00,,,0.00,WUHU21623XXSP,2013-01-29 09:08:00,
2013-01-29 03:13:00,48.0,42.4,29.84,NNW,337,0.0,0.0,81,0.00,,,0.00,WUHU21623XXSP,2013-01-29 09:13:00,
2013-01-29 03:18:00,48.0,42.4,29.84,NNW,337,0.0,0.0,81,0.00,,,0.00,WUHU21623XXSP,2013-01-29 09:18:00,
2013-01-29 03:23:00,48.0,42.4,29.83,NNW,337,0.0,0.0,81,0.00,,,0.00,WUHU21623XXSP,2013-01-29 09:23:00,
2013-01-29 03:28:00,47.8,42.2,29.83,NNW,337,0.0,0.0,81,0.00,,,0.00,WUHU21623XXSP,2013-01-29 09:28:00,
2013-01-29 03:32:00,47.8,42.2,29.83,NNW,337,0.0,0.0,81,0.00,,,0.00,WUHU21623XXSP,2013-01-29 09:32:00,
2013-01-29 03:38:00,47.5,41.9,29.83,NNW,337,0.0,0.0,81,0.00,,,0.00,WUHU21623XXSP,2013-01-29 09:38:00,
2013-01-29 03:43:00,47.5,41.9,29.83,NNW,337,0.0,0.0,81,0.00,,,0.00,WUHU21623XXSP,2013-01-29 09:43:00,
2013-01-29 03:48:00,47.3,41.8,29.83,NNW,337,0.0,0.0,81,0.00,,,0.00,WUHU21623XXSP,2013-01-29 09:48:00,
2013-01-29 03:53:00,47.3,41.8,29.83,NNW,337,0.0,0.0,81,0.00,,,0.00,WUHU21623XXSP,2013-01-29 09:53:00,
2013-01-29 03:58:00,47.3,41.8,29.83,NNW,337,0.0,0.0,81,0.00,,,0.00,WUHU21623XXSP,2013-01-29 09:58:00,
2013-01-29 04:03:00,47.1,41.6,29.83,NNW,337,0.0,0.0,81,0.00,,,0.00,WUHU21623XXSP,2013-01-29 10:03:00,
2013-01-29 04:08:00,47.1,41.6,29.82,NNW,337,0.0,0.0,81,0.00,,,0.00,WUHU21623XXSP,2013-01-29 10:08:00,
2013-01-29 04:13:00,47.1,41.6,29.82,NNW,337,0.0,0.0,81,0.00,,,0.00,WUHU21623XXSP,2013-01-29 10:13:00,
2013-01-29 04:18:00,47.1,41.6,29.82,NNW,337,0.0,0.0,81,0.00,,,0.00,WUHU21623XXSP,2013-01-29 10:18:00,
2013-01-29 04:23:00,46.9,41.4,29.82,NNW,337,0.0,0.0,81,0.00,,,0.00,WUHU21623XXSP,2013-01-29 10:23:00,
2013-01-29 04:28:00,46.9,41.4,29.82,NNW,337,0.0,0.0,81,0.00,,,0.00,WUHU21623XXSP,2013-01-29 10:28:00,
2013-01-29 04:33:00,46.8,41.3,29.82,NNW,337,0.0,0.0,81,0.00,,,0.00,WUHU21623XXSP,2013-01-29 10:33:00,
2013-01-29 04:38:00,46.9,41.7,29.81,NNW,337,0.0,0.0,82,0.00,,,0.00,WUHU21623XXSP,2013-01-29 10:38:00,
2013-01-29 04:43:00,46.9,41.7,29.81,NNW,337,0.0,0.0,82,0.00,,,0.00,WUHU21623XXSP,2013-01-29 10:43:00,
2013-01-29 04:48:00,46.9,41.7,29.81,NNW,337,0.0,0.0,82,0.00,,,0.00,WUHU21623XXSP,2013-01-29 10:48:00,
2013-01-29 04:53:00,46.9,41.7,29.81,NNW,337,0.0,0.0,82,0.00,,,0.00,WUHU21623XXSP,2013-01-29 10:53:00,
2013-01-29 04:58:00,46.9,41.7,29.81,NNW,337,0.0,0.0,82,0.00,,,0.00,WUHU21623XXSP,2013-01-29 10:58:00,
2013-01-29 05:03:00,47.1,41.9,29.81,NNW,337,0.0,0.0,82,0.00,,,0.00,WUHU21623XXSP,2013-01-29 11:03:00,
2013-01-29 05:08:00,47.1,41.9,29.81,NNW,337,0.0,0.0,82,0.00,,,0.00,WUHU21623XXSP,2013-01-29 11:08:00,
2013-01-29 05:13:00,47.3,42.1,29.81,NNW,337,0.0,0.0,82,0.00,,,0.00,WUHU21623XXSP,2013-01-29 11:13:00,
2013-01-29 05:18:00,47.3,42.1,29.82,NNW,337,0.0,0.0,82,0.00,,,0.00,WUHU21623XXSP,2013-01-29 11:18:00,
2013-01-29 05:23:00,47.5,42.5,29.81,NNW,337,0.0,0.0,83,0.00,,,0.00,WUHU21623XXSP,2013-01-29 11:23:00,
2013-01-29 05:28:00,47.8,42.9,29.81,NNW,337,0.0,0.0,83,0.00,,,0.00,WUHU21623XXSP,2013-01-29 11:28:00,
2013-01-29 05:33:00,47.8,42.9,29.81,NNW,337,0.0,0.0,83,0.00,,,0.00,WUHU21623XXSP,2013-01-29 11:33:00,
2013-01-29 05:38:00,48.0,43.1,29.81,NNW,337,0.0,0.0,83,0.00,,,0.00,WUHU21623XXSP,2013-01-29 11:38:00,
2013-01-29 05:43:00,48.0,43.1,29.80,SE,135,0.0,0.0,83,0.00,,,0.00,WUHU21623XXSP,2013-01-29 11:43:00,
2013-01-29 05:48:00,48.2,43.2,29.80,SE,135,0.0,0.0,83,0.00,,,0.00,WUHU21623XXSP,2013-01-29 11:48:00,
2013-01-29 05:53:00,48.4,43.4,29.80,ESE,112,0.0,0.0,83,0.00,,,0.00,WUHU21623XXSP,2013-01-29 11:53:00,
2013-01-29 05:58:00,48.6,43.6,29.80,ESE,112,0.0,0.0,83,0.00,,,0.00,WUHU21623XXSP,2013-01-29 11:58:00,
2013-01-29 06:03:00,48.7,43.8,29.80,ESE,112,0.0,0.0,83,0.00,,,0.00,WUHU21623XXSP,2013-01-29 12:03:00,
2013-01-29 06:08:00,48.9,44.2,29.81,ESE,112,0.0,0.0,84,0.00,,,0.00,WUHU21623XXSP,2013-01-29 12:08:00,
2013-01-29 06:13:00,49.1,44.4,29.81,ESE,112,0.0,0.0,84,0.00,,,0.00,WUHU21623XXSP,2013-01-29 12:13:00,
2013-01-29 06:18:00,49.3,44.6,29.81,ESE,112,0.0,0.0,84,0.00,,,0.00,WUHU21623XXSP,2013-01-29 12:18:00,
2013-01-29 06:23:00,49.5,44.8,29.81,ESE,112,0.0,0.0,84,0.00,,,0.00,WUHU21623XXSP,2013-01-29 12:23:00,
2013-01-29 06:27:00,49.6,44.9,29.82,ESE,112,0.0,0.0,84,0.00,,,0.00,WUHU21623XXSP,2013-01-29 12:27:00,
2013-01-29 06:32:00,49.8,45.1,29.82,ESE,112,0.0,0.0,84,0.00,,,0.00,WUHU21623XXSP,2013-01-29 12:32:00,
2013-01-29 06:37:00,49.8,45.1,29.82,ESE,112,0.0,0.0,84,0.00,,,0.00,WUHU21623XXSP,2013-01-29 12:37:00,
2013-01-29 06:42:00,50.2,45.5,29.83,ESE,112,0.0,0.0,84,0.00,,,0.00,WUHU21623XXSP,2013-01-29 12:42:00,
2013-01-29 06:47:00,50.2,45.5,29.83,ESE,112,0.0,0.0,84,0.00,,,0.00,WUHU21623XXSP,2013-01-29 12:47:00,
2013-01-29 06:52:00,50.4,45.6,29.82,ESE,112,0.0,0.0,84,0.00,,,0.00,WUHU21623XXSP,2013-01-29 12:52:00,
2013-01-29 06:57:00,50.5,45.8,29.82,SE,135,0.0,0.0,84,0.00,,,0.00,WUHU21623XXSP,2013-01-29 12:57:00,
2013-01-29 07:02:00,50.5,45.8,29.82,SE,135,0.0,0.0,84,0.00,,,0.00,WUHU21623XXSP,2013-01-29 13:02:00,
2013-01-29 07:07:00,50.7,46.0,29.82,SE,135,0.0,0.0,84,0.00,,,0.00,WUHU21623XXSP,2013-01-29 13:07:00,
2013-01-29 07:12:00,50.9,46.2,29.82,SE,135,0.0,0.0,84,0.00,,,0.00,WUHU21623XXSP,2013-01-29 13:12:00,
2013-01-29 07:17:00,50.9,46.2,29.82,SE,135,0.0,0.0,84,0.00,,,0.00,WUHU21623XXSP,2013-01-29 13:17:00,
2013-01-29 07:22:00,51.1,46.4,29.82,SE,135,0.0,0.0,84,0.00,,,0.00,WUHU21623XXSP,2013-01-29 13:22:00,
2013-01-29 07:27:00,51.3,46.5,29.82,SE,135,0.0,0.0,84,0.00,,,0.00,WUHU21623XXSP,2013-01-29 13:27:00,
2013-01-29 07:32:00,51.3,46.5,29.82,SE,135,0.0,0.0,84,0.00,,,0.00,WUHU21623XXSP,2013-01-29 13:32:00,
2013-01-29 07:37:00,51.4,46.7,29.82,SE,135,0.0,0.0,84,0.00,,,0.00,WUHU21623XXSP,2013-01-29 13:37:00,
2013-01-29 07:42:00,51.4,46.7,29.82,SE,135,0.0,0.0,84,0.00,,,0.00,WUHU21623XXSP,2013-01-29 13:42:00,
2013-01-29 07:48:00,51.6,46.9,29.82,SE,135,0.0,0.0,84,0.00,,,0.00,WUHU21623XXSP,2013-01-29 13:48:00,
2013-01-29 07:53:00,51.6,46.9,29.82,SSE,157,0.0,0.0,84,0.00,,,0.00,WUHU21623XXSP,2013-01-29 13:53:00,
2013-01-29 07:57:00,51.8,47.1,29.82,SSE,157,0.0,0.0,84,0.00,,,0.00,WUHU21623XXSP,2013-01-29 13:57:00,
2013-01-29 08:02:00,52.0,47.3,29.82,SSE,157,0.0,0.0,84,0.00,,,0.00,WUHU21623XXSP,2013-01-29 14:02:00,
2013-01-29 08:07:00,52.2,47.4,29.82,South,180,0.0,0.0,84,0.00,,,0.00,WUHU21623XXSP,2013-01-29 14:07:00,
2013-01-29 08:12:00,52.3,47.9,29.82,South,180,0.0,0.0,85,0.00,,,0.00,WUHU21623XXSP,2013-01-29 14:12:00,
2013-01-29 08:17:00,52.3,47.9,29.82,South,180,0.0,0.0,85,0.00,,,0.00,WUHU21623XXSP,2013-01-29 14:17:00,
2013-01-29 08:22:00,52.5,48.1,29.82,SSE,157,0.0,0.0,85,0.00,,,0.00,WUHU21623XXSP,2013-01-29 14:22:00,
2013-01-29 08:27:00,52.7,48.3,29.82,SSE,157,0.0,0.0,85,0.00,,,0.00,WUHU21623XXSP,2013-01-29 14:27:00,
2013-01-29 08:32:00,52.9,48.5,29.82,SE,135,0.0,0.0,85,0.00,,,0.00,WUHU21623XXSP,2013-01-29 14:32:00,
2013-01-29 08:37:00,53.1,48.7,29.82,SSE,157,0.0,0.0,85,0.00,,,0.00,WUHU21623XXSP,2013-01-29 14:37:00,
2013-01-29 08:43:00,53.2,48.8,29.82,SE,135,0.0,0.0,85,0.00,,,0.00,WUHU21623XXSP,2013-01-29 14:43:00,
2013-01-29 08:48:00,53.4,49.0,29.82,SE,135,0.0,0.0,85,0.00,,,0.00,WUHU21623XXSP,2013-01-29 14:48:00,
2013-01-29 08:52:00,53.8,49.4,29.82,SSE,157,0.0,0.0,85,0.00,,,0.00,WUHU21623XXSP,2013-01-29 14:52:00,
2013-01-29 08:58:00,54.0,49.5,29.82,SSE,157,0.0,0.0,85,0.00,,,0.00,WUHU21623XXSP,2013-01-29 14:58:00,
2013-01-29 09:02:00,54.1,49.7,29.82,SSE,157,0.0,0.4,85,0.00,,,0.00,WUHU21623XXSP,2013-01-29 15:02:00,
2013-01-29 09:07:00,54.3,49.9,29.82,SSE,157,0.0,0.4,85,0.00,,,0.00,WUHU21623XXSP,2013-01-29 15:07:00,
2013-01-29 09:12:00,54.5,50.0,29.82,SSE,157,0.0,0.9,85,0.00,,,0.00,WUHU21623XXSP,2013-01-29 15:12:00,
2013-01-29 09:17:00,54.9,50.4,29.82,SSE,157,0.0,0.9,85,0.00,,,0.00,WUHU21623XXSP,2013-01-29 15:17:00,
2013-01-29 09:22:00,55.0,50.6,29.82,SE,135,0.0,5.4,85,0.00,,,0.00,WUHU21623XXSP,2013-01-29 15:22:00,
2013-01-29 09:27:00,55.2,50.7,29.81,SSE,157,0.0,5.8,85,0.00,,,0.00,WUHU21623XXSP,2013-01-29 15:27:00,
2013-01-29 09:32:00,55.6,51.4,29.81,South,180,7.4,7.4,86,0.00,,,0.00,WUHU21623XXSP,2013-01-29 15:32:00,
2013-01-29 09:37:00,55.9,51.8,29.81,SSE,157,6.5,7.4,86,0.00,,,0.00,WUHU21623XXSP,2013-01-29 15:37:00,
2013-01-29 09:42:00,56.1,51.9,29.80,South,180,0.0,6.5,86,0.00,,,0.00,WUHU21623XXSP,2013-01-29 15:42:00,
2013-01-29 09:47:00,56.5,52.3,29.80,SSE,157,0.0,7.6,86,0.00,,,0.00,WUHU21623XXSP,2013-01-29 15:47:00,
2013-01-29 09:52:00,56.8,52.7,29.79,SSE,157,0.0,7.6,86,0.00,,,0.00,WUHU21623XXSP,2013-01-29 15:52:00,
2013-01-29 09:57:00,57.0,52.8,29.79,SE,135,0.0,6.9,86,0.00,,,0.00,WUHU21623XXSP,2013-01-29 15:57:00,
2013-01-29 10:02:00,57.2,53.3,29.79,SSE,157,6.9,6.9,87,0.00,,,0.00,WUHU21623XXSP,2013-01-29 16:02:00,
2013-01-29 10:07:00,57.4,53.5,29.79,SSE,157,0.0,6.9,87,0.00,,,0.00,WUHU21623XXSP,2013-01-29 16:07:00,
2013-01-29 10:12:00,57.6,53.7,29.79,SSE,157,5.4,8.1,87,0.00,,,0.00,WUHU21623XXSP,2013-01-29 16:12:00,
2013-01-29 10:17:00,57.7,53.9,29.79,SE,135,0.0,8.1,87,0.00,,,0.00,WUHU21623XXSP,2013-01-29 16:17:00,
2013-01-29 10:22:00,57.9,54.1,29.79,SSE,157,0.0,5.6,87,0.00,,,0.00,WUHU21623XXSP,2013-01-29 16:22:00,
2013-01-29 10:27:00,57.9,54.1,29.79,SE,135,1.8,5.8,87,0.00,,,0.00,WUHU21623XXSP,2013-01-29 16:27:00,
2013-01-29 10:32:00,58.1,54.2,29.78,SE,135,0.4,6.7,87,0.00,,,0.00,WUHU21623XXSP,2013-01-29 16:32:00,
2013-01-29 10:37:00,58.3,54.4,29.78,SSE,157,2.9,6.7,87,0.00,,,0.00,WUHU21623XXSP,2013-01-29 16:37:00,
2013-01-29 10:42:00,58.6,54.8,29.78,SE,135,0.0,10.1,87,0.00,,,0.00,WUHU21623XXSP,2013-01-29 16:42:00,
2013-01-29 10:47:00,58.8,55.0,29.78,South,180,0.0,10.1,87,0.00,,,0.00,WUHU21623XXSP,2013-01-29 16:47:00,
2013-01-29 10:52:00,58.8,55.0,29.77,SSE,157,4.9,6.9,87,0.00,,,0.00,WUHU21623XXSP,2013-01-29 16:52:00,
2013-01-29 10:57:00,58.8,55.0,29.77,SSE,157,4.3,6.9,87,0.00,,,0.00,WUHU21623XXSP,2013-01-29 16:57:00,
2013-01-29 11:02:00,58.8,55.0,29.76,SE,135,0.0,7.8,87,0.00,,,0.00,WUHU21623XXSP,2013-01-29 17:02:00,
2013-01-29 11:07:00,59.4,55.5,29.76,South,180,3.8,8.1,87,0.00,,,0.00,WUHU21623XXSP,2013-01-29 17:07:00,
2013-01-29 11:12:00,59.5,55.7,29.76,SSE,157,5.8,8.1,87,0.00,,,0.00,WUHU21623XXSP,2013-01-29 17:12:00,
2013-01-29 11:17:00,59.7,55.9,29.75,SSE,157,6.7,8.1,87,0.00,,,0.00,WUHU21623XXSP,2013-01-29 17:17:00,
2013-01-29 11:22:00,60.3,56.4,29.74,SSE,157,6.5,9.4,87,0.00,,,0.00,WUHU21623XXSP,2013-01-29 17:22:00,
2013-01-29 11:27:00,60.6,56.8,29.74,SE,135,5.6,11.0,87,0.00,,,0.00,WUHU21623XXSP,2013-01-29 17:27:00,
2013-01-29 11:32:00,61.2,57.3,29.74,SE,135,0.0,11.4,87,0.00,,,0.00,WUHU21623XXSP,2013-01-29 17:32:00,
2013-01-29 11:37:00,61.3,57.1,29.73,SSE,157,6.0,11.4,86,0.00,,,0.00,WUHU21623XXSP,2013-01-29 17:37:00,
2013-01-29 11:42:00,61.5,57.3,29.73,East,90,0.0,9.2,86,0.00,,,0.00,WUHU21623XXSP,2013-01-29 17:42:00,
2013-01-29 11:47:00,61.5,57.0,29.73,South,180,0.0,10.3,85,0.00,,,0.00,WUHU21623XXSP,2013-01-29 17:47:00,
2013-01-29 11:52:00,61.5,57.0,29.73,SSE,157,2.2,10.3,85,0.00,,,0.00,WUHU21623XXSP,2013-01-29 17:52:00,
2013-01-29 11:57:00,61.7,57.1,29.73,SSE,157,5.6,5.8,85,0.00,,,0.00,WUHU21623XXSP,2013-01-29 17:57:00,
2013-01-29 12:02:00,61.7,57.1,29.73,South,180,4.5,8.9,85,0.00,,,0.00,WUHU21623XXSP,2013-01-29 18:02:00,
2013-01-29 12:07:00,61.7,57.1,29.73,SSE,157,3.6,9.6,85,0.00,,,0.00,WUHU21623XXSP,2013-01-29 18:07:00,
2013-01-29 12:12:00,61.7,56.8,29.73,SSE,157,5.4,9.6,84,0.00,,,0.00,WUHU21623XXSP,2013-01-29 18:12:00,
2013-01-29 12:17:00,61.7,56.8,29.73,SE,135,1.3,7.4,84,0.00,,,0.00,WUHU21623XXSP,2013-01-29 18:17:00,
2013-01-29 12:22:00,61.7,56.8,29.73,SE,135,5.8,7.4,84,0.00,,,0.00,WUHU21623XXSP,2013-01-29 18:22:00,
2013-01-29 12:27:00,61.9,57.0,29.72,South,180,2.9,6.7,84,0.00,,,0.00,WUHU21623XXSP,2013-01-29 18:27:00,
2013-01-29 12:32:00,61.9,57.0,29.72,SSE,157,5.6,7.2,84,0.00,,,0.00,WUHU21623XXSP,2013-01-29 18:32:00,
2013-01-29 12:37:00,62.2,57.3,29.71,South,180,4.0,8.5,84,0.00,,,0.00,WUHU21623XXSP,2013-01-29 18:37:00,
2013-01-29 12:42:00,62.2,57.3,29.70,SSE,157,1.6,8.5,84,0.00,,,0.00,WUHU21623XXSP,2013-01-29 18:42:00,
2013-01-29 12:47:00,62.4,57.5,29.70,SSW,202,4.5,8.1,84,0.00,,,0.00,WUHU21623XXSP,2013-01-29 18:47:00,
2013-01-29 12:52:00,62.4,57.5,29.69,SE,135,0.0,9.8,84,0.00,,,0.00,WUHU21623XXSP,2013-01-29 18:52:00,
2013-01-29 12:57:00,62.4,57.5,29.68,SSE,157,0.9,9.8,84,0.00,,,0.00,WUHU21623XXSP,2013-01-29 18:57:00,
2013-01-29 13:02:00,62.8,57.5,29.68,SE,135,0.0,6.7,83,0.00,,,0.00,WUHU21623XXSP,2013-01-29 19:02:00,
2013-01-29 13:07:00,63.0,57.7,29.67,SSE,157,5.6,9.2,83,0.00,,,0.00,WUHU21623XXSP,2013-01-29 19:07:00,
2013-01-29 13:12:00,63.1,57.9,29.67,South,180,7.2,9.2,83,0.00,,,0.00,WUHU21623XXSP,2013-01-29 19:12:00,
2013-01-29 13:17:00,63.3,58.0,29.67,SE,135,2.2,9.6,83,0.00,,,0.00,WUHU21623XXSP,2013-01-29 19:17:00,
2013-01-29 13:22:00,63.5,57.9,29.66,South,180,5.6,9.6,82,0.00,,,0.00,WUHU21623XXSP,2013-01-29 19:22:00,
2013-01-29 13:27:00,63.5,57.9,29.66,South,180,7.8,8.7,82,0.00,,,0.00,WUHU21623XXSP,2013-01-29 19:27:00,
2013-01-29 13:32:00,63.7,58.1,29.65,SE,135,4.7,8.7,82,0.00,,,0.00,WUHU21623XXSP,2013-01-29 19:32:00,
2013-01-29 13:37:00,63.7,58.1,29.65,SE,135,0.0,8.3,82,0.00,,,0.00,WUHU21623XXSP,2013-01-29 19:37:00,
2013-01-29 13:42:00,63.7,58.1,29.65,South,180,3.6,7.2,82,0.00,,,0.00,WUHU21623XXSP,2013-01-29 19:42:00,
2013-01-29 13:47:00,63.7,58.1,29.65,SSE,157,8.9,9.2,82,0.00,,,0.00,WUHU21623XXSP,2013-01-29 19:47:00,
2013-01-29 13:52:00,63.9,58.2,29.65,SSE,157,0.0,9.2,82,0.00,,,0.00,WUHU21623XXSP,2013-01-29 19:52:00,
2013-01-29 13:57:00,63.9,58.2,29.65,ENE,67,0.0,8.9,82,0.00,,,0.00,WUHU21623XXSP,2013-01-29 19:57:00,
2013-01-29 14:02:00,63.9,58.2,29.65,SSE,157,8.1,8.1,82,0.00,,,0.00,WUHU21623XXSP,2013-01-29 20:02:00,
2013-01-29 14:07:00,63.9,58.2,29.65,SE,135,5.8,8.1,82,0.00,,,0.00,WUHU21623XXSP,2013-01-29 20:07:00,
2013-01-29 14:12:00,63.9,57.9,29.64,SE,135,5.8,9.2,81,0.00,,,0.00,WUHU21623XXSP,2013-01-29 20:12:00,
2013-01-29 14:17:00,63.9,57.9,29.63,SSE,157,0.0,9.2,81,0.00,,,0.00,WUHU21623XXSP,2013-01-29 20:17:00,
2013-01-29 14:22:00,63.9,58.1,29.63,South,180,5.8,7.8,81,0.00,,,0.00,WUHU21623XXSP,2013-01-29 20:22:00,
2013-01-29 14:27:00,64.0,58.1,29.63,SSE,157,3.8,8.3,81,0.00,,,0.00,WUHU21623XXSP,2013-01-29 20:27:00,
2013-01-29 14:32:00,64.0,58.1,29.62,ESE,112,0.0,8.3,81,0.00,,,0.00,WUHU21623XXSP,2013-01-29 20:32:00,
2013-01-29 14:37:00,64.0,58.1,29.62,SSE,157,5.4,8.7,81,0.00,,,0.00,WUHU21623XXSP,2013-01-29 20:37:00,
2013-01-29 14:42:00,64.2,58.3,29.62,SE,135,6.0,10.3,81,0.00,,,0.00,WUHU21623XXSP,2013-01-29 20:42:00,
2013-01-29 14:47:00,64.2,58.3,29.62,SSE,157,1.8,10.3,81,0.00,,,0.00,WUHU21623XXSP,2013-01-29 20:47:00,
2013-01-29 14:52:00,64.2,58.3,29.62,SE,135,3.8,8.3,81,0.00,,,0.00,WUHU21623XXSP,2013-01-29 20:52:00,
2013-01-29 14:57:00,64.2,58.3,29.62,SSE,157,7.2,7.8,81,0.00,,,0.00,WUHU21623XXSP,2013-01-29 20:57:00,
2013-01-29 15:02:00,64.2,58.3,29.62,SE,135,2.0,7.6,81,0.00,,,0.00,WUHU21623XXSP,2013-01-29 21:02:00,
2013-01-29 15:07:00,64.2,58.3,29.62,SE,135,0.0,7.6,81,0.00,,,0.00,WUHU21623XXSP,2013-01-29 21:07:00,
2013-01-29 15:12:00,64.2,58.3,29.61,SSE,157,8.1,8.1,81,0.00,,,0.00,WUHU21623XXSP,2013-01-29 21:12:00,
2013-01-29 15:17:00,64.2,58.3,29.61,South,180,5.1,10.5,81,0.00,,,0.00,WUHU21623XXSP,2013-01-29 21:17:00,
2013-01-29 15:22:00,64.2,58.3,29.61,SE,135,5.4,10.5,81,0.00,,,0.00,WUHU21623XXSP,2013-01-29 21:22:00,
2013-01-29 15:27:00,64.2,58.3,29.61,ESE,112,0.0,7.8,81,0.00,,,0.00,WUHU21623XXSP,2013-01-29 21:27:00,
2013-01-29 15:32:00,64.2,58.3,29.61,SSE,157,5.4,7.8,81,0.00,,,0.00,WUHU21623XXSP,2013-01-29 21:32:00,
2013-01-29 15:37:00,64.2,58.3,29.61,SSE,157,6.5,8.7,81,0.00,,,0.00,WUHU21623XXSP,2013-01-29 21:37:00,
2013-01-29 15:42:00,64.2,58.3,29.61,South,180,0.0,8.7,81,0.00,,,0.00,WUHU21623XXSP,2013-01-29 21:42:00,
2013-01-29 15:47:00,64.0,58.1,29.61,SSE,157,0.0,10.7,81,0.00,,,0.00,WUHU21623XXSP,2013-01-29 21:47:00,
2013-01-29 15:52:00,64.2,58.3,29.61,SSE,157,5.4,10.7,81,0.00,,,0.00,WUHU21623XXSP,2013-01-29 21:52:00,
2013-01-29 15:57:00,64.2,58.3,29.61,SE,135,4.0,9.4,81,0.00,,,0.00,WUHU21623XXSP,2013-01-29 21:57:00,
2013-01-29 16:02:00,64.2,58.3,29.61,SSE,157,8.7,9.4,81,0.00,,,0.00,WUHU21623XXSP,2013-01-29 22:02:00,
2013-01-29 16:07:00,64.2,58.3,29.61,ESE,112,5.4,11.2,81,0.00,,,0.00,WUHU21623XXSP,2013-01-29 22:07:00,
2013-01-29 16:12:00,64.2,58.6,29.61,SE,135,1.3,12.3,82,0.00,,,0.00,WUHU21623XXSP,2013-01-29 22:12:00,
2013-01-29 16:17:00,64.2,58.3,29.61,SE,135,0.0,12.3,81,0.00,,,0.00,WUHU21623XXSP,2013-01-29 22:17:00,
2013-01-29 16:22:00,64.2,58.6,29.61,SSE,157,5.1,11.0,82,0.00,,,0.00,WUHU21623XXSP,2013-01-29 22:22:00,
2013-01-29 16:27:00,64.2,58.6,29.61,SE,135,4.9,12.3,82,0.00,,,0.00,WUHU21623XXSP,2013-01-29 22:27:00,
2013-01-29 16:32:00,64.2,58.6,29.60,SE,135,0.0,12.3,82,0.00,,,0.00,WUHU21623XXSP,2013-01-29 22:32:00,
2013-01-29 16:37:00,64.2,58.6,29.61,SE,135,0.0,10.3,82,0.00,,,0.00,WUHU21623XXSP,2013-01-29 22:37:00,
2013-01-29 16:42:00,64.2,58.6,29.61,SE,135,4.3,10.3,82,0.00,,,0.00,WUHU21623XXSP,2013-01-29 22:42:00,
2013-01-29 16:47:00,64.2,58.6,29.61,South,180,8.7,9.8,82,0.00,,,0.00,WUHU21623XXSP,2013-01-29 22:47:00,
2013-01-29 16:52:00,64.0,58.4,29.61,SE,135,4.9,11.2,82,0.00,,,0.00,WUHU21623XXSP,2013-01-29 22:52:00,
2013-01-29 16:57:00,64.0,58.4,29.61,SSE,157,4.7,11.2,82,0.00,,,0.00,WUHU21623XXSP,2013-01-29 22:57:00,
2013-01-29 17:02:00,64.0,58.4,29.61,South,180,5.6,9.2,82,0.00,,,0.00,WUHU21623XXSP,2013-01-29 23:02:00,
2013-01-29 17:07:00,64.0,58.4,29.62,SSE,157,2.5,8.5,82,0.00,,,0.00,WUHU21623XXSP,2013-01-29 23:07:00,
2013-01-29 17:12:00,64.0,58.4,29.62,SSE,157,6.9,8.5,82,0.00,,,0.00,WUHU21623XXSP,2013-01-29 23:12:00,
2013-01-29 17:17:00,64.0,58.4,29.61,SE,135,0.0,9.8,82,0.00,,,0.00,WUHU21623XXSP,2013-01-29 23:17:00,
2013-01-29 17:22:00,64.0,58.4,29.61,SSE,157,8.3,9.8,82,0.00,,,0.00,WUHU21623XXSP,2013-01-29 23:22:00,
2013-01-29 17:27:00,64.0,58.4,29.61,SSE,157,0.0,9.4,82,0.00,,,0.00,WUHU21623XXSP,2013-01-29 23:27:00,
2013-01-29 17:32:00,64.0,58.4,29.60,SE,135,0.0,9.2,82,0.00,,,0.00,WUHU21623XXSP,2013-01-29 23:32:00,
2013-01-29 17:37:00,64.0,58.4,29.60,SSE,157,2.2,6.5,82,0.00,,,0.00,WUHU21623XXSP,2013-01-29 23:37:00,
2013-01-29 17:42:00,64.0,58.4,29.60,South,180,7.4,7.6,82,0.00,,,0.00,WUHU21623XXSP,2013-01-29 23:42:00,
2013-01-29 17:47:00,64.0,58.4,29.60,South,180,0.0,9.2,82,0.00,,,0.00,WUHU21623XXSP,2013-01-29 23:47:00,
2013-01-29 17:52:00,64.0,58.4,29.60,SSE,157,5.4,9.6,82,0.00,,,0.00,WUHU21623XXSP,2013-01-29 23:52:00,
2013-01-29 17:57:00,64.0,58.4,29.60,SSE,157,6.5,9.6,82,0.00,,,0.00,WUHU21623XXSP,2013-01-29 23:57:00,
2013-01-29 18:02:00,64.0,58.4,29.59,SE,135,0.0,8.1,82,0.00,,,0.00,WUHU21623XXSP,2013-01-30 00:02:00,
2013-01-29 18:07:00,64.0,58.4,29.60,SSE,157,5.4,8.1,82,0.00,,,0.00,WUHU21623XXSP,2013-01-30 00:07:00,
2013-01-29 18:12:00,64.0,58.4,29.59,SE,135,7.4,7.4,82,0.00,,,0.00,WUHU21623XXSP,2013-01-30 00:12:00,
2013-01-29 18:17:00,64.0,58.4,29.59,SE,135,5.1,7.6,82,0.00,,,0.00,WUHU21623XXSP,2013-01-30 00:17:00,
2013-01-29 18:22:00,64.0,58.4,29.58,SSE,157,2.0,8.5,82,0.00,,,0.00,WUHU21623XXSP,2013-01-30 00:22:00,
2013-01-29 18:27:00,64.0,58.4,29.57,SE,135,4.3,13.0,82,0.00,,,0.00,WUHU21623XXSP,2013-01-30 00:27:00,
2013-01-29 18:32:00,64.0,58.4,29.57,SSE,157,5.8,13.0,82,0.00,,,0.00,WUHU21623XXSP,2013-01-30 00:32:00,
2013-01-29 18:37:00,64.0,58.4,29.57,SE,135,3.8,9.8,82,0.00,,,0.00,WUHU21623XXSP,2013-01-30 00:37:00,
2013-01-29 18:42:00,64.2,58.6,29.58,SE,135,0.0,11.0,82,0.00,,,0.00,WUHU21623XXSP,2013-01-30 00:42:00,
2013-01-29 18:47:00,64.2,58.6,29.58,South,180,8.7,11.0,82,0.00,,,0.00,WUHU21623XXSP,2013-01-30 00:47:00,
2013-01-29 18:52:00,64.2,58.6,29.58,SSE,157,0.0,8.9,82,0.00,,,0.00,WUHU21623XXSP,2013-01-30 00:52:00,
2013-01-29 18:57:00,64.2,58.6,29.57,South,180,4.5,11.0,82,0.00,,,0.00,WUHU21623XXSP,2013-01-30 00:57:00,
2013-01-29 19:02:00,64.2,58.6,29.57,SSE,157,3.1,11.0,82,0.00,,,0.00,WUHU21623XXSP,2013-01-30 01:02:00,
2013-01-29 19:07:00,64.2,58.6,29.57,South,180,5.6,7.8,82,0.00,,,0.00,WUHU21623XXSP,2013-01-30 01:07:00,
2013-01-29 19:12:00,64.2,58.6,29.57,South,180,3.8,8.7,82,0.00,,,0.00,WUHU21623XXSP,2013-01-30 01:12:00,
2013-01-29 19:17:00,64.2,58.6,29.57,SSE,157,5.6,10.7,82,0.00,,,0.00,WUHU21623XXSP,2013-01-30 01:17:00,
2013-01-29 19:22:00,64.2,58.6,29.57,SSW,202,8.5,10.7,82,0.00,,,0.00,WUHU21623XXSP,2013-01-30 01:22:00,
2013-01-29 19:27:00,64.6,58.9,29.56,SSE,157,9.8,10.1,82,0.00,,,0.00,WUHU21623XXSP,2013-01-30 01:27:00,
2013-01-29 19:32:00,64.4,58.8,29.56,SE,135,0.0,10.5,82,0.00,,,0.00,WUHU21623XXSP,2013-01-30 01:32:00,
2013-01-29 19:37:00,64.2,58.6,29.56,SE,135,5.6,10.5,82,0.00,,,0.00,WUHU21623XXSP,2013-01-30 01:37:00,
2013-01-29 19:42:00,64.2,58.6,29.56,South,180,12.3,12.3,82,0.00,,,0.00,WUHU21623XXSP,2013-01-30 01:42:00,
2013-01-29 19:47:00,64.2,58.6,29.56,SSE,157,7.6,12.8,82,0.00,,,0.00,WUHU21623XXSP,2013-01-30 01:47:00,
2013-01-29 19:52:00,64.2,58.6,29.55,SSE,157,1.3,12.8,82,0.00,,,0.00,WUHU21623XXSP,2013-01-30 01:52:00,
2013-01-29 19:57:00,64.2,58.6,29.54,SE,135,0.0,10.1,82,0.00,,,0.00,WUHU21623XXSP,2013-01-30 01:57:00,
2013-01-29 20:02:00,64.2,58.6,29.54,SE,135,0.0,8.1,82,0.00,,,0.00,WUHU21623XXSP,2013-01-30 02:02:00,
2013-01-29 20:07:00,64.2,58.6,29.54,South,180,4.3,8.1,82,0.00,,,0.00,WUHU21623XXSP,2013-01-30 02:07:00,
2013-01-29 20:12:00,64.2,58.6,29.54,SSW,202,5.8,7.2,82,0.00,,,0.00,WUHU21623XXSP,2013-01-30 02:12:00,
2013-01-29 20:17:00,64.2,58.6,29.54,SSE,157,4.9,7.4,82,0.00,,,0.00,WUHU21623XXSP,2013-01-30 02:17:00,
2013-01-29 20:22:00,64.2,58.6,29.54,SSE,157,0.0,7.8,82,0.00,,,0.00,WUHU21623XXSP,2013-01-30 02:22:00,
2013-01-29 20:27:00,64.2,58.6,29.53,SSE,157,2.7,9.6,82,0.00,,,0.00,WUHU21623XXSP,2013-01-30 02:27:00,
2013-01-29 20:32:00,64.4,58.8,29.53,SSE,157,7.8,9.6,82,0.00,,,0.00,WUHU21623XXSP,2013-01-30 02:32:00,
2013-01-29 20:37:00,64.6,58.9,29.53,SSE,157,0.0,10.5,82,0.00,,,0.00,WUHU21623XXSP,2013-01-30 02:37:00,
2013-01-29 20:42:00,64.6,58.9,29.52,SSE,157,8.9,10.5,82,0.00,,,0.00,WUHU21623XXSP,2013-01-30 02:42:00,
2013-01-29 20:47:00,64.6,58.9,29.52,SSE,157,2.7,9.6,82,0.00,,,0.00,WUHU21623XXSP,2013-01-30 02:47:00,
2013-01-29 20:52:00,64.6,58.9,29.52,SSE,157,0.0,6.9,82,0.00,,,0.00,WUHU21623XXSP,2013-01-30 02:52:00,
2013-01-29 20:57:00,64.6,58.9,29.52,SSE,157,3.8,10.3,82,0.00,,,0.00,WUHU21623XXSP,2013-01-30 02:57:00,
2013-01-29 21:02:00,64.6,58.9,29.51,SSE,157,6.7,10.3,82,0.00,,,0.00,WUHU21623XXSP,2013-01-30 03:02:00,
2013-01-29 21:07:00,64.6,58.9,29.51,SSE,157,11.0,11.0,82,0.00,,,0.00,WUHU21623XXSP,2013-01-30 03:07:00,
2013-01-29 21:12:00,64.6,58.9,29.51,SSE,157,8.3,11.0,82,0.00,,,0.00,WUHU21623XXSP,2013-01-30 03:12:00,
2013-01-29 21:17:00,64.6,58.9,29.50,SSE,157,8.7,10.1,82,0.00,,,0.00,WUHU21623XXSP,2013-01-30 03:17:00,
2013-01-29 21:22:00,64.6,58.9,29.49,SE,135,6.3,12.8,82,0.00,,,0.00,WUHU21623XXSP,2013-01-30 03:22:00,
2013-01-29 21:27:00,64.8,59.1,29.49,SSW,202,4.7,12.8,82,0.00,,,0.00,WUHU21623XXSP,2013-01-30 03:27:00,
2013-01-29 21:32:00,64.8,59.1,29.49,SE,135,0.0,10.7,82,0.00,,,0.00,WUHU21623XXSP,2013-01-30 03:32:00,
2013-01-29 21:37:00,64.8,58.8,29.48,SSE,157,5.4,16.3,81,0.00,,,0.00,WUHU21623XXSP,2013-01-30 03:37:00,
2013-01-29 21:42:00,64.8,58.8,29.47,SE,135,1.6,16.3,81,0.00,,,0.00,WUHU21623XXSP,2013-01-30 03:42:00,
2013-01-29 21:47:00,64.9,59.0,29.47,SSE,157,9.4,9.4,81,0.00,,,0.00,WUHU21623XXSP,2013-01-30 03:47:00,
2013-01-29 21:52:00,64.9,59.0,29.47,SE,135,9.6,9.6,81,0.00,,,0.00,WUHU21623XXSP,2013-01-30 03:52:00,
2013-01-29 21:57:00,64.9,59.0,29.47,SSE,157,6.7,9.6,81,0.00,,,0.00,WUHU21623XXSP,2013-01-30 03:57:00,
2013-01-29 22:02:00,64.9,59.0,29.46,SE,135,0.0,12.5,81,0.00,,,0.00,WUHU21623XXSP,2013-01-30 04:02:00,
2013-01-29 22:07:00,65.1,59.1,29.46,SSE,157,7.2,12.5,81,0.00,,,0.00,WUHU21623XXSP,2013-01-30 04:07:00,
2013-01-29 22:12:00,65.1,59.1,29.45,SSE,157,7.6,11.0,81,0.00,,,0.00,WUHU21623XXSP,2013-01-30 04:12:00,
2013-01-29 22:17:00,65.1,59.1,29.45,South,180,7.8,9.8,81,0.00,,,0.00,WUHU21623XXSP,2013-01-30 04:17:00,
2013-01-29 22:22:00,65.1,59.1,29.44,SSE,157,2.0,18.8,81,0.00,,,0.00,WUHU21623XXSP,2013-01-30 04:22:00,
2013-01-29 22:27:00,65.3,59.0,29.44,SSE,157,6.7,18.8,80,0.00,,,0.00,WUHU21623XXSP,2013-01-30 04:27:00,
2013-01-29 22:32:00,65.5,59.2,29.44,SE,135,5.4,15.7,80,0.00,,,0.00,WUHU21623XXSP,2013-01-30 04:32:00,
2013-01-29 22:37:00,65.5,59.2,29.43,SSE,157,6.3,15.9,80,0.00,,,0.00,WUHU21623XXSP,2013-01-30 04:37:00,
2013-01-29 22:42:00,65.7,59.4,29.43,SE,135,10.1,20.1,80,0.00,,,0.00,WUHU21623XXSP,2013-01-30 04:42:00,
2013-01-29 22:47:00,65.8,59.5,29.42,South,180,9.4,20.1,80,0.00,,,0.00,WUHU21623XXSP,2013-01-30 04:47:00,
2013-01-29 22:52:00,66.0,59.7,29.42,SSE,157,6.9,17.2,80,0.00,,,0.00,WUHU21623XXSP,2013-01-30 04:52:00,
2013-01-29 22:57:00,66.0,59.7,29.41,SE,135,5.6,21.5,80,0.00,,,0.00,WUHU21623XXSP,2013-01-30 04:57:00,
2013-01-29 23:00:00,66.0,59.7,29.41,SSE,157,15.4,21.5,80,0.00,,,0.00,WUHU21623XXSP,2013-01-30 05:00:00,
2013-01-29 23:03:00,66.0,59.7,29.41,SSE,157,4.0,21.5,80,0.00,,,0.00,WUHU21623XXSP,2013-01-30 05:03:00,
2013-01-29 23:08:00,66.2,59.9,29.40,SSE,157,2.7,17.9,80,0.00,,,0.00,WUHU21623XXSP,2013-01-30 05:08:00,
2013-01-29 23:13:00,66.4,60.1,29.39,SE,135,13.2,18.6,80,0.00,,,0.00,WUHU21623XXSP,2013-01-30 05:13:00,
2013-01-29 23:18:00,66.7,60.4,29.38,SE,135,10.7,25.5,80,0.00,,,0.00,WUHU21623XXSP,2013-01-30 05:18:00,
2013-01-29 23:23:00,66.7,60.1,29.38,SE,135,8.9,32.4,79,0.00,,,0.00,WUHU21623XXSP,2013-01-30 05:23:00,
2013-01-29 23:28:00,66.9,60.2,29.37,SSE,157,10.7,32.4,79,0.00,,,0.00,WUHU21623XXSP,2013-01-30 05:28:00,
2013-01-29 23:33:00,67.1,60.4,29.38,SSE,157,6.7,23.3,79,0.00,,,0.00,WUHU21623XXSP,2013-01-30 05:33:00,
2013-01-29 23:38:00,67.1,60.4,29.37,SSE,157,15.4,19.7,79,0.00,,,0.00,WUHU21623XXSP,2013-01-30 05:38:00,
2013-01-29 23:43:00,67.3,60.6,29.38,South,180,20.1,20.1,79,0.00,,,0.00,WUHU21623XXSP,2013-01-30 05:43:00,
2013-01-29 23:48:00,67.3,60.2,29.37,South,180,10.5,20.1,78,0.00,,,0.00,WUHU21623XXSP,2013-01-30 05:48:00,
2013-01-29 23:53:00,67.3,60.2,29.37,South,180,15.2,23.5,78,0.00,,,0.00,WUHU21623XXSP,2013-01-30 05:53:00,
2013-01-29 23:58:00,67.5,60.4,29.36,South,180,2.5,23.5,78,0.00,,,0.00,WUHU21623XXSP,2013-01-30 05:58:00,